createdAt,value
2022-10-23T00:00:41.866Z,101123.69
2022-10-23T00:03:09.638Z,101126.88
2022-10-23T00:05:40.587Z,101126.34
2022-10-23T00:08:08.767Z,101124.44
2022-10-23T00:10:36.595Z,101121.06
2022-10-23T00:13:04.333Z,101121.53
2022-10-23T00:15:32.495Z,101132.72
2022-10-23T00:18:01.812Z,101127.09
2022-10-23T00:20:29.522Z,101132.00
2022-10-23T00:22:57.418Z,101132.34
2022-10-23T00:25:25.099Z,101142.56
2022-10-23T00:27:52.908Z,101142.44
2022-10-23T00:30:20.827Z,101135.34
2022-10-23T00:32:48.636Z,101137.72
2022-10-23T00:35:17.929Z,101137.84
2022-10-23T00:37:45.730Z,101142.50
2022-10-23T00:40:13.835Z,101142.75
2022-10-23T00:42:41.909Z,101135.59
2022-10-23T00:45:18.519Z,101138.66
2022-10-23T00:47:47.408Z,101137.41
2022-10-23T00:50:16.914Z,101135.47
2022-10-23T00:52:48.592Z,101136.22
2022-10-23T00:55:17.673Z,101138.69
2022-10-23T00:57:46.805Z,101144.81
2022-10-23T01:00:29.658Z,101134.56
2022-10-23T01:02:58.413Z,101126.09
2022-10-23T01:05:32.680Z,101137.41
2022-10-23T01:08:03.792Z,101136.84
2022-10-23T01:10:35.820Z,101146.00
2022-10-23T01:13:09.057Z,101139.44
2022-10-23T01:15:39.354Z,101140.44
2022-10-23T01:18:11.422Z,101151.44
2022-10-23T01:20:48.144Z,101144.66
2022-10-23T01:23:27.392Z,101138.50
2022-10-23T01:26:12.709Z,101139.09
2022-10-23T01:28:46.294Z,101143.59
2022-10-23T01:31:17.595Z,101141.56
2022-10-23T01:33:50.283Z,101145.75
2022-10-23T01:36:27.984Z,101148.41
2022-10-23T01:39:01.166Z,101154.50
2022-10-23T01:41:31.371Z,101152.44
2022-10-23T01:44:05.762Z,101155.03
2022-10-23T01:46:37.484Z,101157.84
2022-10-23T01:49:10.611Z,101154.91
2022-10-23T01:51:39.161Z,101153.06
2022-10-23T01:54:11.681Z,101153.63
2022-10-23T01:56:43.492Z,101151.59
2022-10-23T01:59:15.725Z,101150.75
2022-10-23T02:01:46.098Z,101142.53
2022-10-23T02:04:16.827Z,101147.66
2022-10-23T02:06:44.676Z,101149.94
2022-10-23T02:09:12.492Z,101147.47
2022-10-23T02:11:46.271Z,101145.91
2022-10-23T02:14:20.050Z,101140.72
2022-10-23T02:16:52.075Z,101136.72
2022-10-23T02:19:23.742Z,101145.34
2022-10-23T02:21:53.943Z,101142.81
2022-10-23T02:24:28.164Z,101133.81
2022-10-23T02:27:00.731Z,101139.75
2022-10-23T02:29:33.027Z,101143.66
2022-10-23T02:32:02.108Z,101140.31
2022-10-23T02:34:29.864Z,101133.00
2022-10-23T02:36:57.983Z,101138.34
2022-10-23T02:39:28.134Z,101131.88
2022-10-23T02:42:01.130Z,101128.56
2022-10-23T02:44:40.363Z,101133.34
2022-10-23T02:47:17.814Z,101132.28
2022-10-23T02:49:49.503Z,101121.78
2022-10-23T02:52:22.553Z,101128.66
2022-10-23T02:55:11.496Z,101135.50
2022-10-23T02:57:54.139Z,101128.81
2022-10-23T03:00:24.599Z,101135.94
2022-10-23T03:02:56.989Z,101135.22
2022-10-23T03:05:29.528Z,101131.03
2022-10-23T03:07:57.246Z,101129.69
2022-10-23T03:10:25.165Z,101120.88
2022-10-23T03:12:53.824Z,101112.72
2022-10-23T03:15:23.168Z,101111.19
2022-10-23T03:17:52.772Z,101116.09
2022-10-23T03:20:20.540Z,101117.19
2022-10-23T03:22:48.325Z,101119.56
2022-10-23T03:25:16.146Z,101122.19
2022-10-23T03:27:43.924Z,101136.66
2022-10-23T03:30:15.977Z,101141.22
2022-10-23T03:32:45.580Z,101140.44
2022-10-23T03:35:13.527Z,101139.84
2022-10-23T03:37:41.366Z,101130.03
2022-10-23T03:40:10.713Z,101128.19
2022-10-23T03:42:38.440Z,101119.84
2022-10-23T03:45:07.110Z,101134.03
2022-10-23T03:47:40.716Z,101135.94
2022-10-23T03:50:10.911Z,101132.50
2022-10-23T03:52:40.753Z,101140.16
2022-10-23T03:55:09.741Z,101137.56
2022-10-23T03:57:37.589Z,101144.19
2022-10-23T04:00:07.051Z,101134.75
2022-10-23T04:02:44.310Z,101129.63
2022-10-23T04:05:14.298Z,101138.34
2022-10-23T04:07:51.488Z,101143.28
2022-10-23T04:10:19.319Z,101146.63
2022-10-23T04:12:47.099Z,101141.81
2022-10-23T04:15:14.848Z,101147.47
2022-10-23T04:17:46.148Z,101149.00
2022-10-23T04:20:15.680Z,101139.84
2022-10-23T04:22:43.681Z,101138.63
2022-10-23T04:25:12.693Z,101130.13
2022-10-23T04:27:40.617Z,101129.16
2022-10-23T04:30:09.868Z,101133.25
2022-10-23T04:32:38.936Z,101130.41
2022-10-23T04:35:08.131Z,101139.31
2022-10-23T04:37:37.807Z,101136.63
2022-10-23T04:40:08.523Z,101136.28
2022-10-23T04:42:37.864Z,101138.03
2022-10-23T04:45:06.337Z,101143.22
2022-10-23T04:47:34.775Z,101142.59
2022-10-23T04:50:03.617Z,101135.34
2022-10-23T04:52:55.395Z,101132.66
2022-10-23T04:55:52.726Z,101137.84
2022-10-23T04:58:36.016Z,101144.31
2022-10-23T05:01:03.863Z,101147.34
2022-10-23T05:03:31.789Z,101150.88
2022-10-23T05:06:00.208Z,101137.94
2022-10-23T05:08:53.066Z,101139.59
2022-10-23T05:11:43.958Z,101139.97
2022-10-23T05:14:11.722Z,101139.03
2022-10-23T05:16:44.392Z,101135.28
2022-10-23T05:19:18.605Z,101134.69
2022-10-23T05:21:49.552Z,101131.13
2022-10-23T05:24:21.679Z,101131.63
2022-10-23T05:26:57.631Z,101136.25
2022-10-23T05:29:25.465Z,101133.63
2022-10-23T05:31:57.094Z,101141.31
2022-10-23T05:34:28.905Z,101132.91
2022-10-23T05:36:56.845Z,101125.91
2022-10-23T05:39:26.435Z,101144.84
2022-10-23T05:41:54.988Z,101136.09
2022-10-23T05:44:25.653Z,101145.34
2022-10-23T05:47:29.371Z,101149.88
2022-10-23T05:50:12.496Z,101142.50
2022-10-23T05:53:15.151Z,101146.97
2022-10-23T05:56:06.708Z,101151.00
2022-10-23T05:58:44.935Z,101153.72
2022-10-23T06:01:25.313Z,101140.22
2022-10-23T06:04:00.312Z,101147.25
2022-10-23T06:06:54.364Z,101146.06
2022-10-23T06:09:22.258Z,101133.84
2022-10-23T06:11:56.111Z,101135.59
2022-10-23T06:14:24.467Z,101134.59
2022-10-23T06:16:55.675Z,101136.53
2022-10-23T06:19:25.133Z,101136.81
2022-10-23T06:21:55.898Z,101139.22
2022-10-23T06:24:34.330Z,101141.00
2022-10-23T06:27:06.338Z,101134.13
2022-10-23T06:29:44.707Z,101132.50
2022-10-23T06:32:12.670Z,101134.75
2022-10-23T06:34:42.635Z,101129.34
2022-10-23T06:37:10.502Z,101134.91
2022-10-23T06:39:45.422Z,101143.16
2022-10-23T06:42:37.629Z,101143.66
2022-10-23T06:45:25.994Z,101148.91
2022-10-23T06:48:12.470Z,101158.06
2022-10-23T06:51:05.220Z,101170.56
2022-10-23T06:53:40.517Z,101156.13
2022-10-23T06:56:29.233Z,101163.00
2022-10-23T06:59:02.620Z,101164.88
2022-10-23T07:01:31.452Z,101157.75
2022-10-23T07:03:59.799Z,101155.19
2022-10-23T07:06:27.697Z,101152.38
2022-10-23T07:08:55.678Z,101151.88
2022-10-23T07:12:01.799Z,101154.44
2022-10-23T07:14:41.069Z,101164.38
2022-10-23T07:17:09.045Z,101167.66
2022-10-23T07:19:36.978Z,101164.53
2022-10-23T07:22:12.034Z,101157.41
2022-10-23T07:25:06.808Z,101164.13
2022-10-23T07:27:39.579Z,101153.06
2022-10-23T07:30:12.716Z,101153.59
2022-10-23T07:32:51.609Z,101151.25
2022-10-23T07:35:40.265Z,101147.94
2022-10-23T07:38:14.802Z,101150.69
2022-10-23T07:40:46.834Z,101159.44
2022-10-23T07:43:18.495Z,101161.75
2022-10-23T07:45:49.476Z,101145.88
2022-10-23T07:48:32.184Z,101150.56
2022-10-23T07:51:01.859Z,101142.28
2022-10-23T07:53:31.091Z,101149.88
2022-10-23T07:56:17.790Z,101146.19
2022-10-23T07:59:08.476Z,101142.88
2022-10-23T08:01:38.977Z,101145.75
2022-10-23T08:04:07.217Z,101143.50
2022-10-23T08:06:39.603Z,101143.41
2022-10-23T08:09:07.663Z,101154.41
2022-10-23T08:11:39.096Z,101144.88
2022-10-23T08:14:09.358Z,101153.53
2022-10-23T08:16:40.260Z,101156.84
2022-10-23T08:19:16.983Z,101157.41
2022-10-23T08:21:46.774Z,101149.38
2022-10-23T08:24:15.523Z,101152.06
2022-10-23T08:26:46.197Z,101145.09
2022-10-23T08:29:15.580Z,101145.28
2022-10-23T08:31:45.001Z,101154.59
2022-10-23T08:34:33.106Z,101151.31
2022-10-23T08:37:03.389Z,101153.59
2022-10-23T08:39:33.239Z,101148.56
2022-10-23T08:42:21.486Z,101142.31
2022-10-23T08:44:54.917Z,101146.53
2022-10-23T08:47:29.597Z,101139.50
2022-10-23T08:50:23.528Z,101135.84
2022-10-23T08:52:53.496Z,101136.16
2022-10-23T08:55:25.192Z,101135.91
2022-10-23T08:57:57.456Z,101135.03
2022-10-23T09:00:25.197Z,101138.53
2022-10-23T09:02:55.295Z,101132.03
2022-10-23T09:05:29.074Z,101134.50
2022-10-23T09:08:17.523Z,101137.72
2022-10-23T09:11:00.089Z,101138.13
2022-10-23T09:13:41.672Z,101141.38
2022-10-23T09:16:18.563Z,101140.41
2022-10-23T09:18:48.272Z,101126.47
2022-10-23T09:21:16.136Z,101127.66
2022-10-23T09:23:44.079Z,101121.66
2022-10-23T09:26:14.298Z,101123.91
2022-10-23T09:28:48.627Z,101119.38
2022-10-23T09:31:17.115Z,101128.00
2022-10-23T09:33:56.631Z,101133.41
2022-10-23T09:36:25.997Z,101122.19
2022-10-23T09:38:55.823Z,101120.84
2022-10-23T09:41:27.779Z,101122.41
2022-10-23T09:44:03.137Z,101123.09
2022-10-23T09:46:41.620Z,101116.09
2022-10-23T09:49:18.742Z,101128.19
2022-10-23T09:51:57.601Z,101126.47
2022-10-23T09:54:25.351Z,101116.22
2022-10-23T09:56:54.945Z,101115.81
2022-10-23T09:59:26.613Z,101104.63
2022-10-23T10:01:56.852Z,101107.97
2022-10-23T10:04:52.035Z,101109.34
2022-10-23T10:07:21.735Z,101108.84
2022-10-23T10:09:49.621Z,101107.50
2022-10-23T10:12:38.544Z,101103.91
2022-10-23T10:15:13.269Z,101106.03
2022-10-23T10:17:45.188Z,101105.81
2022-10-23T10:20:39.342Z,101109.78
2022-10-23T10:23:11.617Z,101097.47
2022-10-23T10:25:48.553Z,101087.69
2022-10-23T10:28:28.059Z,101085.00
2022-10-23T10:31:04.030Z,101084.09
2022-10-23T10:33:37.262Z,101093.16
2022-10-23T10:36:14.489Z,101088.97
2022-10-23T10:38:49.052Z,101093.34
2022-10-23T10:41:45.157Z,101087.25
2022-10-23T10:44:52.309Z,101087.03
2022-10-23T10:47:24.229Z,101085.28
2022-10-23T10:50:01.949Z,101089.38
2022-10-23T10:52:51.798Z,101074.63
2022-10-23T10:55:22.391Z,101069.34
2022-10-23T10:57:55.803Z,101075.50
2022-10-23T11:00:25.745Z,101068.94
2022-10-23T11:02:56.024Z,101048.59
2022-10-23T11:05:30.367Z,101054.69
2022-10-23T11:08:03.055Z,101048.00
2022-10-23T11:10:31.184Z,101054.06
2022-10-23T11:12:58.972Z,101043.63
2022-10-23T11:15:29.292Z,101032.69
2022-10-23T11:18:00.120Z,101029.09
2022-10-23T11:20:55.260Z,101021.22
2022-10-23T11:23:45.875Z,101030.03
2022-10-23T11:26:24.158Z,101025.56
2022-10-23T11:29:04.320Z,101019.69
2022-10-23T11:31:39.129Z,101012.91
2022-10-23T11:34:33.825Z,101005.63
2022-10-23T11:37:02.353Z,101005.69
2022-10-23T11:39:32.448Z,101007.84
2022-10-23T11:42:15.722Z,101003.69
2022-10-23T11:44:44.867Z,101000.84
2022-10-23T11:47:38.886Z,100998.41
2022-10-23T11:50:18.367Z,100994.44
2022-10-23T11:53:15.383Z,100985.28
2022-10-23T11:56:01.973Z,100984.06
2022-10-23T11:58:42.370Z,100983.09
2022-10-23T12:01:24.279Z,100977.72
2022-10-23T12:03:55.284Z,100972.72
2022-10-23T12:06:26.164Z,100981.28
2022-10-23T12:08:56.744Z,100976.91
2022-10-23T12:11:41.107Z,100978.59
2022-10-23T12:14:27.397Z,100973.66
2022-10-23T12:16:55.166Z,100966.63
2022-10-23T12:19:25.340Z,100956.56
2022-10-23T12:21:54.161Z,100956.63
2022-10-23T12:24:39.675Z,100953.59
2022-10-23T12:27:22.216Z,100951.09
2022-10-23T12:29:59.358Z,100946.16
2022-10-23T12:32:34.528Z,100946.25
2022-10-23T12:35:22.483Z,100946.38
2022-10-23T12:38:01.781Z,100936.47
2022-10-23T12:40:30.652Z,100934.81
2022-10-23T12:43:01.922Z,100923.47
2022-10-23T12:45:31.239Z,100933.69
2022-10-23T12:48:00.620Z,100922.72
2022-10-23T12:50:31.238Z,100922.94
2022-10-23T12:53:00.976Z,100916.81
2022-10-23T12:55:35.073Z,100917.13
2022-10-23T12:58:05.129Z,100919.75
2022-10-23T13:00:32.862Z,100912.09
2022-10-23T13:03:01.844Z,100894.34
2022-10-23T13:05:30.562Z,100902.47
2022-10-23T13:07:59.431Z,100903.88
2022-10-23T13:10:43.692Z,100895.53
2022-10-23T13:13:13.971Z,100887.03
2022-10-23T13:15:44.091Z,100882.16
2022-10-23T13:18:16.734Z,100875.75
2022-10-23T13:20:56.640Z,100868.53
2022-10-23T13:23:28.071Z,100864.00
2022-10-23T13:25:56.617Z,100862.28
2022-10-23T13:28:27.536Z,100861.88
2022-10-23T13:31:04.286Z,100874.31
2022-10-23T13:33:37.628Z,100871.75
2022-10-23T13:36:19.985Z,100859.88
2022-10-23T13:38:49.125Z,100867.56
2022-10-23T13:41:18.171Z,100865.25
2022-10-23T13:43:48.755Z,100866.28
2022-10-23T13:46:17.607Z,100855.72
2022-10-23T13:48:45.559Z,100848.38
2022-10-23T13:51:16.111Z,100858.91
2022-10-23T13:53:43.870Z,100860.97
2022-10-23T13:56:13.228Z,100855.59
2022-10-23T13:58:41.336Z,100850.59
2022-10-23T14:01:17.622Z,100861.03
2022-10-23T14:03:45.468Z,100852.88
2022-10-23T14:06:13.207Z,100843.47
2022-10-23T14:08:40.924Z,100842.31
2022-10-23T14:11:08.741Z,100840.88
2022-10-23T14:13:36.526Z,100832.94
2022-10-23T14:16:04.360Z,100829.19
2022-10-23T14:18:33.442Z,100833.28
2022-10-23T14:21:01.332Z,100834.00
2022-10-23T14:23:29.094Z,100834.50
2022-10-23T14:26:02.877Z,100832.09
2022-10-23T14:28:30.651Z,100829.44
2022-10-23T14:30:58.695Z,100827.25
2022-10-23T14:33:26.443Z,100822.31
2022-10-23T14:35:55.524Z,100823.66
2022-10-23T14:38:23.258Z,100824.53
2022-10-23T14:40:50.953Z,100817.06
2022-10-23T14:43:18.941Z,100820.75
2022-10-23T14:45:46.669Z,100815.56
2022-10-23T14:48:14.412Z,100813.19
2022-10-23T14:50:44.720Z,100811.72
2022-10-23T14:53:13.968Z,100806.78
2022-10-23T14:55:41.755Z,100806.06
2022-10-23T14:58:09.517Z,100804.50
2022-10-23T15:00:37.212Z,100804.13
2022-10-23T15:03:05.083Z,100805.13
2022-10-23T15:05:32.776Z,100805.91
2022-10-23T15:08:01.711Z,100807.09
2022-10-23T15:10:30.845Z,100804.81
2022-10-23T15:12:58.602Z,100796.75
2022-10-23T15:15:26.331Z,100786.63
2022-10-23T15:17:54.062Z,100780.63
2022-10-23T15:20:22.832Z,100787.78
2022-10-23T15:22:50.597Z,100786.25
2022-10-23T15:25:18.670Z,100776.06
2022-10-23T15:27:48.337Z,100767.63
2022-10-23T15:30:16.763Z,100767.28
2022-10-23T15:32:44.500Z,100758.50
2022-10-23T15:35:12.229Z,100753.94
2022-10-23T15:37:40.043Z,100760.25
2022-10-23T15:40:08.920Z,100758.59
2022-10-23T15:42:36.815Z,100749.22
2022-10-23T15:45:06.760Z,100750.38
2022-10-23T15:47:34.463Z,100749.63
2022-10-23T15:50:02.214Z,100748.13
2022-10-23T15:52:29.939Z,100737.59
2022-10-23T15:54:57.655Z,100737.69
2022-10-23T15:57:26.853Z,100740.69
2022-10-23T15:59:54.558Z,100743.06
2022-10-23T16:02:24.143Z,100742.50
2022-10-23T16:04:51.976Z,100731.19
2022-10-23T16:07:19.822Z,100731.69
2022-10-23T16:09:47.556Z,100733.00
2022-10-23T16:12:15.377Z,100738.63
2022-10-23T16:14:43.135Z,100728.31
2022-10-23T16:17:11.413Z,100724.09
2022-10-23T16:19:40.975Z,100722.06
2022-10-23T16:22:09.213Z,100723.38
2022-10-23T16:24:36.938Z,100724.34
2022-10-23T16:27:04.835Z,100724.97
2022-10-23T16:29:32.646Z,100730.06
2022-10-23T16:32:00.779Z,100714.13
2022-10-23T16:34:28.571Z,100718.34
2022-10-23T16:36:57.729Z,100716.25
2022-10-23T16:39:32.417Z,100710.50
2022-10-23T16:45:12.103Z,100702.06
2022-10-23T16:47:39.858Z,100698.03
2022-10-23T16:50:08.164Z,100700.72
2022-10-23T16:52:37.330Z,100710.56
2022-10-23T16:55:05.681Z,100700.06
2022-10-23T16:57:33.605Z,100698.22
2022-10-23T17:00:01.452Z,100693.25
2022-10-23T17:02:29.364Z,100694.81
2022-10-23T17:04:57.305Z,100693.09
2022-10-23T17:07:25.044Z,100687.50
2022-10-23T17:09:54.133Z,100686.78
2022-10-23T17:12:21.873Z,100676.97
2022-10-23T17:14:49.586Z,100678.97
2022-10-23T17:17:17.447Z,100668.19
2022-10-23T17:19:46.486Z,100655.66
2022-10-23T17:22:15.141Z,100646.59
2022-10-23T17:24:46.178Z,100626.34
2022-10-23T17:27:18.109Z,100633.75
2022-10-23T17:29:45.819Z,100627.09
2022-10-23T17:32:13.784Z,100637.84
2022-10-23T17:34:41.542Z,100642.13
2022-10-23T17:37:10.133Z,100640.47
2022-10-23T17:39:37.936Z,100641.06
2022-10-23T17:42:05.728Z,100643.81
2022-10-23T17:44:34.786Z,100627.47
2022-10-23T17:47:04.465Z,100627.69
2022-10-23T17:49:32.186Z,100622.69
2022-10-23T17:51:59.907Z,100631.94
2022-10-23T17:54:28.467Z,100637.50
2022-10-23T17:56:56.333Z,100646.50
2022-10-23T17:59:24.390Z,100648.47
2022-10-23T18:01:53.678Z,100642.78
2022-10-23T18:04:21.711Z,100630.84
2022-10-23T18:06:52.389Z,100635.09
2022-10-23T18:09:20.419Z,100626.34
2022-10-23T18:11:48.825Z,100616.44
2022-10-23T18:14:16.948Z,100607.03
2022-10-23T18:16:45.573Z,100603.06
2022-10-23T18:19:15.335Z,100597.31
2022-10-23T18:21:43.081Z,100613.56
2022-10-23T18:24:11.211Z,100605.66
2022-10-23T18:26:39.329Z,100597.38
2022-10-23T18:29:08.561Z,100603.63
2022-10-23T18:31:37.702Z,100601.09
2022-10-23T18:34:07.759Z,100593.44
2022-10-23T18:36:40.593Z,100597.31
2022-10-23T18:39:10.209Z,100590.91
2022-10-23T18:41:40.575Z,100594.84
2022-10-23T18:44:08.968Z,100596.69
2022-10-23T18:46:37.284Z,100589.41
2022-10-23T18:49:05.746Z,100580.91
2022-10-23T18:51:35.414Z,100581.34
2022-10-23T18:54:06.600Z,100581.56
2022-10-23T18:56:35.839Z,100588.25
2022-10-23T18:59:05.828Z,100581.50
2022-10-23T19:01:34.451Z,100579.06
2022-10-23T19:04:02.708Z,100575.38
2022-10-23T19:06:31.398Z,100566.19
2022-10-23T19:08:59.248Z,100562.25
2022-10-23T19:11:29.730Z,100569.78
2022-10-23T19:13:57.414Z,100562.22
2022-10-23T19:16:28.390Z,100566.94
2022-10-23T19:18:58.076Z,100567.22
2022-10-23T19:21:31.105Z,100561.03
2022-10-23T19:23:59.976Z,100563.16
2022-10-23T19:26:31.306Z,100562.28
2022-10-23T19:28:59.159Z,100549.56
2022-10-23T19:31:27.145Z,100557.75
2022-10-23T19:33:55.254Z,100554.06
2022-10-23T19:36:23.616Z,100544.75
2022-10-23T19:38:51.488Z,100534.72
2022-10-23T19:41:19.387Z,100530.34
2022-10-23T19:43:48.555Z,100514.06
2022-10-23T19:46:16.352Z,100517.34
2022-10-23T19:48:44.975Z,100518.59
2022-10-23T19:51:13.908Z,100527.66
2022-10-23T19:53:42.690Z,100528.53
2022-10-23T19:56:12.081Z,100537.53
2022-10-23T19:58:40.094Z,100543.75
2022-10-23T20:01:11.076Z,100535.69
2022-10-23T20:03:39.448Z,100539.75
2022-10-23T20:06:10.240Z,100543.88
2022-10-23T20:08:38.018Z,100536.06
2022-10-23T20:11:06.272Z,100537.94
2022-10-23T20:13:34.020Z,100539.97
2022-10-23T20:16:01.992Z,100546.63
2022-10-23T20:18:31.170Z,100543.44
2022-10-23T20:21:03.234Z,100535.78
2022-10-23T20:23:30.964Z,100542.84
2022-10-23T20:26:05.264Z,100534.22
2022-10-23T20:28:33.069Z,100538.19
2022-10-23T20:31:02.285Z,100532.78
2022-10-23T20:33:31.385Z,100529.84
2022-10-23T20:35:59.158Z,100523.84
2022-10-23T20:38:26.934Z,100522.56
2022-10-23T20:40:57.104Z,100520.75
2022-10-23T20:43:24.826Z,100535.34
2022-10-23T20:45:52.554Z,100536.72
2022-10-23T20:48:20.278Z,100526.53
2022-10-23T20:50:49.490Z,100533.16
2022-10-23T20:53:17.231Z,100514.22
2022-10-23T20:55:44.976Z,100512.06
2022-10-23T20:58:12.870Z,100515.66
2022-10-23T21:00:40.634Z,100520.94
2022-10-23T21:03:08.419Z,100515.88
2022-10-23T21:05:36.106Z,100520.91
2022-10-23T21:08:05.511Z,100521.09
2022-10-23T21:10:33.231Z,100507.19
2022-10-23T21:13:00.969Z,100507.00
2022-10-23T21:15:29.319Z,100500.47
2022-10-23T21:18:03.982Z,100504.94
2022-10-23T21:20:41.044Z,100502.19
2022-10-23T21:23:10.290Z,100501.13
2022-10-23T21:25:39.437Z,100507.19
2022-10-23T21:28:07.404Z,100514.59
2022-10-23T21:30:35.953Z,100515.72
2022-10-23T21:33:04.256Z,100515.19
2022-10-23T21:35:32.691Z,100520.47
2022-10-23T21:38:00.528Z,100540.91
2022-10-23T21:40:29.803Z,100545.63
2022-10-23T21:42:57.554Z,100545.66
2022-10-23T21:45:25.270Z,100549.63
2022-10-23T21:47:53.011Z,100543.81
2022-10-23T21:50:20.763Z,100544.97
2022-10-23T21:52:51.832Z,100547.53
2022-10-23T21:55:19.787Z,100537.38
2022-10-23T21:57:48.877Z,100535.88
2022-10-23T22:00:17.522Z,100542.75
2022-10-23T22:02:45.517Z,100534.59
2022-10-23T22:05:13.545Z,100536.09
2022-10-23T22:07:41.375Z,100532.75
2022-10-23T22:10:09.827Z,100535.47
2022-10-23T22:12:37.497Z,100535.97
2022-10-23T22:15:07.945Z,100544.19
2022-10-23T22:17:35.663Z,100551.16
2022-10-23T22:20:03.335Z,100546.28
2022-10-23T22:22:31.010Z,100559.53
2022-10-23T22:24:58.739Z,100561.53
2022-10-23T22:27:26.647Z,100558.00
2022-10-23T22:29:54.488Z,100569.59
2022-10-23T22:32:23.511Z,100569.56
2022-10-23T22:34:53.452Z,100573.44
2022-10-23T22:37:21.665Z,100565.44
2022-10-23T22:39:51.320Z,100562.25
2022-10-23T22:42:19.016Z,100577.69
2022-10-23T22:44:46.701Z,100569.03
2022-10-23T22:47:14.414Z,100564.28
2022-10-23T22:49:43.560Z,100565.72
2022-10-23T22:52:11.330Z,100568.69
2022-10-23T22:54:39.065Z,100569.81
2022-10-23T22:57:06.819Z,100578.25
2022-10-23T22:59:34.518Z,100568.16
2022-10-23T23:02:02.250Z,100574.22
2022-10-23T23:04:38.644Z,100567.94
2022-10-23T23:07:08.729Z,100562.00
2022-10-23T23:09:38.285Z,100549.59
2022-10-23T23:12:06.344Z,100555.63
2022-10-23T23:14:34.099Z,100551.91
2022-10-23T23:17:01.883Z,100541.16
2022-10-23T23:19:29.611Z,100533.78
2022-10-23T23:21:57.826Z,100517.72
2022-10-23T23:24:27.052Z,100512.91
2022-10-23T23:26:54.808Z,100511.31
2022-10-23T23:29:22.701Z,100511.47
2022-10-23T23:31:50.472Z,100504.81
2022-10-23T23:34:18.241Z,100508.66
2022-10-23T23:36:45.988Z,100518.69
2022-10-23T23:39:13.702Z,100513.91
2022-10-23T23:41:42.761Z,100503.50
2022-10-23T23:44:10.655Z,100483.41
2022-10-23T23:46:38.598Z,100489.84
2022-10-23T23:49:06.321Z,100489.56
2022-10-23T23:51:34.042Z,100490.00
2022-10-23T23:54:01.810Z,100482.66
2022-10-23T23:56:29.534Z,100481.34
2022-10-23T23:58:58.816Z,100481.25
